sensor_id;sensor_type;location;lat;lon;timestamp;pressure;altitude;pressure_sealevel;temperature
71897;BMP280;59767;51.344;12.362;2022-09-29T00:02:10;98803.78;;;8.70
71897;BMP280;59767;51.344;12.362;2022-09-29T00:05:15;98796.00;;;8.71
71897;BMP280;59767;51.344;12.362;2022-09-29T00:08:21;98794.19;;;8.65
71897;BMP280;59767;51.344;12.362;2022-09-29T00:11:25;98793.56;;;8.63
71897;BMP280;59767;51.344;12.362;2022-09-29T00:14:29;98793.69;;;8.55
71897;BMP280;59767;51.344;12.362;2022-09-29T00:17:33;98800.63;;;8.53
71897;BMP280;59767;51.344;12.362;2022-09-29T00:20:38;98807.38;;;8.46
71897;BMP280;59767;51.344;12.362;2022-09-29T00:23:42;98803.41;;;8.44
71897;BMP280;59767;51.344;12.362;2022-09-29T00:26:45;98814.47;;;8.43
71897;BMP280;59767;51.344;12.362;2022-09-29T00:29:50;98816.75;;;8.38
71897;BMP280;59767;51.344;12.362;2022-09-29T00:32:54;98822.94;;;8.35
71897;BMP280;59767;51.344;12.362;2022-09-29T00:36:00;98811.44;;;8.33
71897;BMP280;59767;51.344;12.362;2022-09-29T00:39:05;98817.81;;;8.29
71897;BMP280;59767;51.344;12.362;2022-09-29T00:42:11;98817.53;;;8.24
71897;BMP280;59767;51.344;12.362;2022-09-29T00:45:22;98811.13;;;8.21
71897;BMP280;59767;51.344;12.362;2022-09-29T00:48:30;98819.97;;;8.17
71897;BMP280;59767;51.344;12.362;2022-09-29T00:51:36;98812.72;;;8.14
71897;BMP280;59767;51.344;12.362;2022-09-29T00:54:57;98817.31;;;8.11
71897;BMP280;59767;51.344;12.362;2022-09-29T00:58:07;98819.41;;;8.07
71897;BMP280;59767;51.344;12.362;2022-09-29T01:01:14;98818.81;;;8.05
71897;BMP280;59767;51.344;12.362;2022-09-29T01:04:18;98824.03;;;8.04
71897;BMP280;59767;51.344;12.362;2022-09-29T01:07:23;98819.13;;;8.02
71897;BMP280;59767;51.344;12.362;2022-09-29T01:10:28;98824.81;;;8.04
71897;BMP280;59767;51.344;12.362;2022-09-29T01:13:32;98816.97;;;8.14
71897;BMP280;59767;51.344;12.362;2022-09-29T01:16:38;98830.56;;;8.13
71897;BMP280;59767;51.344;12.362;2022-09-29T01:20:09;98819.84;;;8.11
71897;BMP280;59767;51.344;12.362;2022-09-29T01:23:39;98831.44;;;8.20
71897;BMP280;59767;51.344;12.362;2022-09-29T01:27:06;98827.63;;;8.24
71897;BMP280;59767;51.344;12.362;2022-09-29T01:30:19;98829.00;;;8.26
71897;BMP280;59767;51.344;12.362;2022-09-29T01:33:37;98829.53;;;8.22
71897;BMP280;59767;51.344;12.362;2022-09-29T01:36:55;98827.19;;;8.20
71897;BMP280;59767;51.344;12.362;2022-09-29T01:40:22;98824.13;;;8.25
71897;BMP280;59767;51.344;12.362;2022-09-29T01:43:37;98826.81;;;8.23
71897;BMP280;59767;51.344;12.362;2022-09-29T01:46:52;98821.00;;;8.23
71897;BMP280;59767;51.344;12.362;2022-09-29T01:50:01;98833.63;;;8.23
71897;BMP280;59767;51.344;12.362;2022-09-29T01:53:17;98830.50;;;8.21
71897;BMP280;59767;51.344;12.362;2022-09-29T01:56:34;98822.31;;;8.19
71897;BMP280;59767;51.344;12.362;2022-09-29T01:59:48;98829.19;;;8.25
71897;BMP280;59767;51.344;12.362;2022-09-29T02:02:57;98829.63;;;8.28
71897;BMP280;59767;51.344;12.362;2022-09-29T02:06:03;98834.41;;;8.23
71897;BMP280;59767;51.344;12.362;2022-09-29T02:09:25;98836.16;;;8.23
71897;BMP280;59767;51.344;12.362;2022-09-29T02:12:32;98840.09;;;8.03
71897;BMP280;59767;51.344;12.362;2022-09-29T02:15:38;98844.72;;;7.99
71897;BMP280;59767;51.344;12.362;2022-09-29T02:18:53;98846.13;;;8.02
71897;BMP280;59767;51.344;12.362;2022-09-29T02:22:01;98844.88;;;7.98
71897;BMP280;59767;51.344;12.362;2022-09-29T02:25:07;98841.31;;;7.92
71897;BMP280;59767;51.344;12.362;2022-09-29T02:28:12;98841.69;;;7.89
71897;BMP280;59767;51.344;12.362;2022-09-29T02:31:16;98851.31;;;7.86
71897;BMP280;59767;51.344;12.362;2022-09-29T02:34:21;98843.44;;;7.81
71897;BMP280;59767;51.344;12.362;2022-09-29T02:40:44;98853.75;;;7.71
71897;BMP280;59767;51.344;12.362;2022-09-29T02:54:24;98848.63;;;7.65
71897;BMP280;59767;51.344;12.362;2022-09-29T02:57:54;98855.88;;;7.60
71897;BMP280;59767;51.344;12.362;2022-09-29T03:01:01;98860.16;;;7.59
71897;BMP280;59767;51.344;12.362;2022-09-29T03:04:05;98860.00;;;7.61
71897;BMP280;59767;51.344;12.362;2022-09-29T03:07:10;98859.19;;;7.60
71897;BMP280;59767;51.344;12.362;2022-09-29T03:10:16;98847.56;;;7.59
71897;BMP280;59767;51.344;12.362;2022-09-29T03:13:20;98857.31;;;7.62
71897;BMP280;59767;51.344;12.362;2022-09-29T03:16:24;98858.41;;;7.60
71897;BMP280;59767;51.344;12.362;2022-09-29T03:19:28;98858.00;;;7.56
71897;BMP280;59767;51.344;12.362;2022-09-29T03:22:33;98856.03;;;7.58
71897;BMP280;59767;51.344;12.362;2022-09-29T03:25:37;98856.34;;;7.63
71897;BMP280;59767;51.344;12.362;2022-09-29T03:28:41;98859.66;;;7.64
71897;BMP280;59767;51.344;12.362;2022-09-29T03:31:45;98859.50;;;7.65
71897;BMP280;59767;51.344;12.362;2022-09-29T03:34:49;98852.44;;;7.61
71897;BMP280;59767;51.344;12.362;2022-09-29T03:37:58;98863.03;;;7.56
71897;BMP280;59767;51.344;12.362;2022-09-29T03:41:03;98860.31;;;7.58
71897;BMP280;59767;51.344;12.362;2022-09-29T03:44:07;98868.22;;;7.55
71897;BMP280;59767;51.344;12.362;2022-09-29T03:47:11;98868.22;;;7.55
71897;BMP280;59767;51.344;12.362;2022-09-29T03:50:15;98869.50;;;7.51
71897;BMP280;59767;51.344;12.362;2022-09-29T03:53:20;98873.75;;;7.50
71897;BMP280;59767;51.344;12.362;2022-09-29T03:56:23;98871.84;;;7.52
71897;BMP280;59767;51.344;12.362;2022-09-29T03:59:28;98871.00;;;7.60
71897;BMP280;59767;51.344;12.362;2022-09-29T04:02:32;98873.03;;;7.64
71897;BMP280;59767;51.344;12.362;2022-09-29T04:05:39;98881.56;;;7.63
71897;BMP280;59767;51.344;12.362;2022-09-29T04:08:43;98873.03;;;7.64
71897;BMP280;59767;51.344;12.362;2022-09-29T04:11:47;98878.88;;;7.65
71897;BMP280;59767;51.344;12.362;2022-09-29T04:14:51;98878.88;;;7.65
71897;BMP280;59767;51.344;12.362;2022-09-29T04:17:55;98885.38;;;7.59
71897;BMP280;59767;51.344;12.362;2022-09-29T04:21:04;98885.53;;;7.58
71897;BMP280;59767;51.344;12.362;2022-09-29T04:24:09;98892.31;;;7.57
71897;BMP280;59767;51.344;12.362;2022-09-29T04:27:14;98894.53;;;7.52
71897;BMP280;59767;51.344;12.362;2022-09-29T04:30:18;98887.63;;;7.54
71897;BMP280;59767;51.344;12.362;2022-09-29T04:33:22;98893.91;;;7.50
71897;BMP280;59767;51.344;12.362;2022-09-29T04:36:26;98893.47;;;7.47
71897;BMP280;59767;51.344;12.362;2022-09-29T04:39:30;98897.72;;;7.46
71897;BMP280;59767;51.344;12.362;2022-09-29T04:42:34;98894.25;;;7.47
71897;BMP280;59767;51.344;12.362;2022-09-29T04:45:38;98894.25;;;7.47
71897;BMP280;59767;51.344;12.362;2022-09-29T04:48:42;98890.34;;;7.45
71897;BMP280;59767;51.344;12.362;2022-09-29T04:51:46;98895.19;;;7.46
71897;BMP280;59767;51.344;12.362;2022-09-29T04:54:50;98906.56;;;7.42
71897;BMP280;59767;51.344;12.362;2022-09-29T04:57:55;98903.34;;;7.26
71897;BMP280;59767;51.344;12.362;2022-09-29T05:01:06;98905.53;;;7.29
71897;BMP280;59767;51.344;12.362;2022-09-29T05:04:11;98905.53;;;7.29
71897;BMP280;59767;51.344;12.362;2022-09-29T05:07:16;98911.81;;;7.33
71897;BMP280;59767;51.344;12.362;2022-09-29T05:10:21;98914.34;;;7.33
71897;BMP280;59767;51.344;12.362;2022-09-29T05:13:25;98911.66;;;7.34
71897;BMP280;59767;51.344;12.362;2022-09-29T05:16:29;98914.78;;;7.36
71897;BMP280;59767;51.344;12.362;2022-09-29T05:19:33;98924.53;;;7.39
71897;BMP280;59767;51.344;12.362;2022-09-29T05:22:38;98924.84;;;7.36
71897;BMP280;59767;51.344;12.362;2022-09-29T05:25:42;98921.13;;;7.32
71897;BMP280;59767;51.344;12.362;2022-09-29T05:28:47;98921.97;;;7.47
71897;BMP280;59767;51.344;12.362;2022-09-29T05:31:51;98922.97;;;7.38
71897;BMP280;59767;51.344;12.362;2022-09-29T05:34:56;98923.94;;;7.37
71897;BMP280;59767;51.344;12.362;2022-09-29T05:38:00;98920.28;;;7.40
71897;BMP280;59767;51.344;12.362;2022-09-29T05:41:05;98925.16;;;7.41
71897;BMP280;59767;51.344;12.362;2022-09-29T05:44:09;98926.56;;;7.44
71897;BMP280;59767;51.344;12.362;2022-09-29T05:47:13;98927.38;;;7.44
71897;BMP280;59767;51.344;12.362;2022-09-29T05:50:17;98927.81;;;7.48
71897;BMP280;59767;51.344;12.362;2022-09-29T05:53:21;98919.59;;;7.54
71897;BMP280;59767;51.344;12.362;2022-09-29T05:56:26;98933.25;;;7.59
71897;BMP280;59767;51.344;12.362;2022-09-29T05:59:30;98936.06;;;7.64
71897;BMP280;59767;51.344;12.362;2022-09-29T06:02:34;98942.84;;;7.64
71897;BMP280;59767;51.344;12.362;2022-09-29T06:05:38;98934.81;;;7.68
71897;BMP280;59767;51.344;12.362;2022-09-29T06:08:43;98942.19;;;7.70
71897;BMP280;59767;51.344;12.362;2022-09-29T06:11:47;98938.38;;;7.74
71897;BMP280;59767;51.344;12.362;2022-09-29T06:14:51;98935.38;;;7.78
71897;BMP280;59767;51.344;12.362;2022-09-29T06:17:58;98942.88;;;7.86
71897;BMP280;59767;51.344;12.362;2022-09-29T06:21:10;98937.00;;;7.94
71897;BMP280;59767;51.344;12.362;2022-09-29T06:24:14;98938.31;;;8.04
71897;BMP280;59767;51.344;12.362;2022-09-29T06:27:18;98934.88;;;8.05
71897;BMP280;59767;51.344;12.362;2022-09-29T06:30:22;98927.72;;;8.09
71897;BMP280;59767;51.344;12.362;2022-09-29T06:33:27;98933.78;;;8.22
71897;BMP280;59767;51.344;12.362;2022-09-29T06:36:38;98939.72;;;8.29
71897;BMP280;59767;51.344;12.362;2022-09-29T06:40:09;98939.47;;;8.39
71897;BMP280;59767;51.344;12.362;2022-09-29T06:43:14;98940.91;;;8.41
71897;BMP280;59767;51.344;12.362;2022-09-29T06:46:18;98939.41;;;8.47
71897;BMP280;59767;51.344;12.362;2022-09-29T06:49:23;98942.72;;;8.47
71897;BMP280;59767;51.344;12.362;2022-09-29T06:52:27;98936.03;;;8.54
71897;BMP280;59767;51.344;12.362;2022-09-29T06:55:32;98944.13;;;8.64
71897;BMP280;59767;51.344;12.362;2022-09-29T06:58:36;98944.75;;;8.81
71897;BMP280;59767;51.344;12.362;2022-09-29T07:01:41;98945.97;;;8.85
71897;BMP280;59767;51.344;12.362;2022-09-29T07:04:45;98948.56;;;8.91
71897;BMP280;59767;51.344;12.362;2022-09-29T07:07:51;98941.78;;;9.07
71897;BMP280;59767;51.344;12.362;2022-09-29T07:11:02;98958.03;;;9.19
71897;BMP280;59767;51.344;12.362;2022-09-29T07:14:07;98953.28;;;9.24
71897;BMP280;59767;51.344;12.362;2022-09-29T07:17:11;98946.91;;;9.28
71897;BMP280;59767;51.344;12.362;2022-09-29T07:20:16;98953.16;;;9.32
71897;BMP280;59767;51.344;12.362;2022-09-29T07:23:20;98942.16;;;9.39
71897;BMP280;59767;51.344;12.362;2022-09-29T07:26:24;98941.50;;;9.45
71897;BMP280;59767;51.344;12.362;2022-09-29T07:29:28;98939.78;;;9.52
71897;BMP280;59767;51.344;12.362;2022-09-29T07:32:35;98948.84;;;9.61
71897;BMP280;59767;51.344;12.362;2022-09-29T07:35:39;98948.28;;;9.66
71897;BMP280;59767;51.344;12.362;2022-09-29T07:38:48;98947.81;;;9.77
71897;BMP280;59767;51.344;12.362;2022-09-29T07:41:52;98947.72;;;9.85
71897;BMP280;59767;51.344;12.362;2022-09-29T07:44:57;98956.13;;;9.92
71897;BMP280;59767;51.344;12.362;2022-09-29T07:48:01;98953.47;;;10.00
71897;BMP280;59767;51.344;12.362;2022-09-29T07:51:15;98959.38;;;10.07
71897;BMP280;59767;51.344;12.362;2022-09-29T07:54:19;98957.69;;;10.14
71897;BMP280;59767;51.344;12.362;2022-09-29T07:57:28;98962.22;;;10.25
71897;BMP280;59767;51.344;12.362;2022-09-29T08:00:32;98965.72;;;10.45
71897;BMP280;59767;51.344;12.362;2022-09-29T08:03:38;98962.66;;;10.90
71897;BMP280;59767;51.344;12.362;2022-09-29T08:06:42;98963.59;;;11.16
71897;BMP280;59767;51.344;12.362;2022-09-29T08:09:46;98972.03;;;11.36
71897;BMP280;59767;51.344;12.362;2022-09-29T08:12:50;98971.06;;;11.31
71897;BMP280;59767;51.344;12.362;2022-09-29T08:15:58;98970.47;;;11.35
71897;BMP280;59767;51.344;12.362;2022-09-29T08:19:03;98979.03;;;11.41
71897;BMP280;59767;51.344;12.362;2022-09-29T08:22:08;98981.41;;;11.49
71897;BMP280;59767;51.344;12.362;2022-09-29T08:25:14;98983.97;;;11.55
71897;BMP280;59767;51.344;12.362;2022-09-29T08:28:19;98985.09;;;11.46
71897;BMP280;59767;51.344;12.362;2022-09-29T08:31:35;98987.25;;;11.43
71897;BMP280;59767;51.344;12.362;2022-09-29T08:34:40;98995.88;;;11.48
71897;BMP280;59767;51.344;12.362;2022-09-29T08:37:44;98993.53;;;11.53
71897;BMP280;59767;51.344;12.362;2022-09-29T08:40:48;99001.16;;;11.53
71897;BMP280;59767;51.344;12.362;2022-09-29T08:43:55;99002.16;;;11.65
71897;BMP280;59767;51.344;12.362;2022-09-29T08:47:18;98998.84;;;11.71
71897;BMP280;59767;51.344;12.362;2022-09-29T08:50:30;99007.44;;;11.83
71897;BMP280;59767;51.344;12.362;2022-09-29T08:53:41;99011.00;;;11.95
71897;BMP280;59767;51.344;12.362;2022-09-29T08:56:59;99018.81;;;12.07
71897;BMP280;59767;51.344;12.362;2022-09-29T09:00:08;99017.66;;;12.16
71897;BMP280;59767;51.344;12.362;2022-09-29T09:10:38;99021.53;;;12.70
71897;BMP280;59767;51.344;12.362;2022-09-29T09:17:44;99030.78;;;13.02
71897;BMP280;59767;51.344;12.362;2022-09-29T09:21:09;99033.06;;;13.23
71897;BMP280;59767;51.344;12.362;2022-09-29T09:24:21;99039.94;;;13.23
71897;BMP280;59767;51.344;12.362;2022-09-29T09:27:34;99038.53;;;13.27
71897;BMP280;59767;51.344;12.362;2022-09-29T09:30:52;99035.75;;;13.41
71897;BMP280;59767;51.344;12.362;2022-09-29T09:34:06;99037.22;;;13.55
71897;BMP280;59767;51.344;12.362;2022-09-29T09:37:33;99036.00;;;13.64
71897;BMP280;59767;51.344;12.362;2022-09-29T09:40:49;99034.84;;;13.67
71897;BMP280;59767;51.344;12.362;2022-09-29T09:44:16;99036.00;;;13.64
71897;BMP280;59767;51.344;12.362;2022-09-29T09:47:30;99027.13;;;13.42
71897;BMP280;59767;51.344;12.362;2022-09-29T09:50:41;99028.31;;;13.40
71897;BMP280;59767;51.344;12.362;2022-09-29T09:53:47;99036.69;;;13.47
71897;BMP280;59767;51.344;12.362;2022-09-29T09:57:20;99029.28;;;13.39
71897;BMP280;59767;51.344;12.362;2022-09-29T10:00:34;99034.66;;;13.18
71897;BMP280;59767;51.344;12.362;2022-09-29T10:03:39;99034.16;;;12.96
71897;BMP280;59767;51.344;12.362;2022-09-29T10:06:43;99038.22;;;13.04
71897;BMP280;59767;51.344;12.362;2022-09-29T10:09:47;99036.25;;;13.12
71897;BMP280;59767;51.344;12.362;2022-09-29T10:13:19;99044.31;;;13.47
71897;BMP280;59767;51.344;12.362;2022-09-29T10:16:50;99048.34;;;13.92
71897;BMP280;59767;51.344;12.362;2022-09-29T10:20:00;99043.69;;;14.38
71897;BMP280;59767;51.344;12.362;2022-09-29T10:23:18;99044.88;;;14.78
71897;BMP280;59767;51.344;12.362;2022-09-29T10:26:24;99049.50;;;14.99
71897;BMP280;59767;51.344;12.362;2022-09-29T10:29:37;99048.78;;;15.10
71897;BMP280;59767;51.344;12.362;2022-09-29T10:32:43;99046.09;;;15.23
71897;BMP280;59767;51.344;12.362;2022-09-29T10:35:49;99038.94;;;15.43
71897;BMP280;59767;51.344;12.362;2022-09-29T10:38:55;99046.34;;;15.74
71897;BMP280;59767;51.344;12.362;2022-09-29T10:42:24;99040.97;;;15.64
71897;BMP280;59767;51.344;12.362;2022-09-29T10:45:29;99052.91;;;15.81
71897;BMP280;59767;51.344;12.362;2022-09-29T10:48:33;99048.41;;;15.54
71897;BMP280;59767;51.344;12.362;2022-09-29T10:51:38;99054.00;;;15.33
71897;BMP280;59767;51.344;12.362;2022-09-29T10:54:59;99057.63;;;15.25
71897;BMP280;59767;51.344;12.362;2022-09-29T11:01:58;99056.03;;;14.95
71897;BMP280;59767;51.344;12.362;2022-09-29T11:05:24;99056.53;;;14.85
71897;BMP280;59767;51.344;12.362;2022-09-29T11:08:29;99057.47;;;14.73
71897;BMP280;59767;51.344;12.362;2022-09-29T11:11:35;99047.50;;;14.47
71897;BMP280;59767;51.344;12.362;2022-09-29T11:14:41;99047.97;;;14.19
71897;BMP280;59767;51.344;12.362;2022-09-29T11:17:49;99056.13;;;14.03
71897;BMP280;59767;51.344;12.362;2022-09-29T11:24:50;99057.78;;;13.60
71897;BMP280;59767;51.344;12.362;2022-09-29T11:28:19;99058.19;;;13.51
71897;BMP280;59767;51.344;12.362;2022-09-29T11:35:16;99052.00;;;13.78
71897;BMP280;59767;51.344;12.362;2022-09-29T11:38:28;99058.94;;;13.95
71897;BMP280;59767;51.344;12.362;2022-09-29T11:41:51;99061.22;;;14.03
71897;BMP280;59767;51.344;12.362;2022-09-29T11:45:02;99056.56;;;13.94
71897;BMP280;59767;51.344;12.362;2022-09-29T11:48:21;99065.69;;;13.77
71897;BMP280;59767;51.344;12.362;2022-09-29T11:51:47;99065.97;;;13.62
71897;BMP280;59767;51.344;12.362;2022-09-29T11:55:06;99065.84;;;13.51
71897;BMP280;59767;51.344;12.362;2022-09-29T11:58:28;99060.56;;;13.46
71897;BMP280;59767;51.344;12.362;2022-09-29T12:01:47;99059.97;;;13.44
71897;BMP280;59767;51.344;12.362;2022-09-29T12:15:05;99071.47;;;13.97
71897;BMP280;59767;51.344;12.362;2022-09-29T12:18:18;99062.22;;;14.27
71897;BMP280;59767;51.344;12.362;2022-09-29T12:21:38;99062.75;;;14.53
71897;BMP280;59767;51.344;12.362;2022-09-29T12:24:50;99072.34;;;14.76
71897;BMP280;59767;51.344;12.362;2022-09-29T12:27:59;99061.41;;;14.87
71897;BMP280;59767;51.344;12.362;2022-09-29T12:31:20;99062.84;;;15.01
71897;BMP280;59767;51.344;12.362;2022-09-29T12:34:39;99061.25;;;15.18
71897;BMP280;59767;51.344;12.362;2022-09-29T12:41:30;99057.03;;;15.12
71897;BMP280;59767;51.344;12.362;2022-09-29T12:44:41;99059.09;;;15.03
71897;BMP280;59767;51.344;12.362;2022-09-29T12:47:58;99063.13;;;14.93
71897;BMP280;59767;51.344;12.362;2022-09-29T12:51:15;99055.38;;;14.81
71897;BMP280;59767;51.344;12.362;2022-09-29T12:54:42;99058.53;;;14.83
71897;BMP280;59767;51.344;12.362;2022-09-29T12:57:53;99063.63;;;14.83
71897;BMP280;59767;51.344;12.362;2022-09-29T13:01:13;99056.91;;;14.89
71897;BMP280;59767;51.344;12.362;2022-09-29T13:11:54;99065.97;;;14.85
71897;BMP280;59767;51.344;12.362;2022-09-29T13:15:22;99059.66;;;14.87
71897;BMP280;59767;51.344;12.362;2022-09-29T13:29:31;99057.25;;;14.74
71897;BMP280;59767;51.344;12.362;2022-09-29T13:32:46;99056.03;;;14.77
71897;BMP280;59767;51.344;12.362;2022-09-29T13:35:52;99065.97;;;14.85
71897;BMP280;59767;51.344;12.362;2022-09-29T13:38:57;99057.31;;;14.86
71897;BMP280;59767;51.344;12.362;2022-09-29T13:42:26;99063.56;;;14.90
71897;BMP280;59767;51.344;12.362;2022-09-29T13:48:45;99069.44;;;14.90
71897;BMP280;59767;51.344;12.362;2022-09-29T13:51:55;99061.28;;;14.82
71897;BMP280;59767;51.344;12.362;2022-09-29T14:01:46;99071.41;;;14.70
71897;BMP280;59767;51.344;12.362;2022-09-29T14:04:52;99066.94;;;14.66
71897;BMP280;59767;51.344;12.362;2022-09-29T14:08:18;99069.84;;;14.69
71897;BMP280;59767;51.344;12.362;2022-09-29T14:11:42;99074.09;;;14.75
71897;BMP280;59767;51.344;12.362;2022-09-29T14:14:57;99079.28;;;14.87
71897;BMP280;59767;51.344;12.362;2022-09-29T14:18:06;99071.13;;;14.78
71897;BMP280;59767;51.344;12.362;2022-09-29T14:24:47;99076.06;;;14.55
71897;BMP280;59767;51.344;12.362;2022-09-29T14:31:16;99079.75;;;14.59
71897;BMP280;59767;51.344;12.362;2022-09-29T14:34:27;99074.69;;;14.53
71897;BMP280;59767;51.344;12.362;2022-09-29T14:37:32;99080.06;;;14.45
71897;BMP280;59767;51.344;12.362;2022-09-29T14:40:37;99076.19;;;14.42
71897;BMP280;59767;51.344;12.362;2022-09-29T14:43:44;99088.44;;;14.52
71897;BMP280;59767;51.344;12.362;2022-09-29T14:54:25;99092.50;;;14.59
71897;BMP280;59767;51.344;12.362;2022-09-29T14:57:55;99101.09;;;14.65
71897;BMP280;59767;51.344;12.362;2022-09-29T15:04:14;99105.78;;;14.68
71897;BMP280;59767;51.344;12.362;2022-09-29T15:07:25;99110.88;;;14.68
71897;BMP280;59767;51.344;12.362;2022-09-29T15:10:37;99106.97;;;14.65
71897;BMP280;59767;51.344;12.362;2022-09-29T15:13:45;99110.50;;;14.64
71897;BMP280;59767;51.344;12.362;2022-09-29T15:20:26;99127.44;;;14.59
71897;BMP280;59767;51.344;12.362;2022-09-29T15:27:12;99128.19;;;14.59
71897;BMP280;59767;51.344;12.362;2022-09-29T15:30:19;99128.81;;;14.55
71897;BMP280;59767;51.344;12.362;2022-09-29T15:33:25;99139.66;;;14.50
71897;BMP280;59767;51.344;12.362;2022-09-29T15:36:34;99140.31;;;14.39
71897;BMP280;59767;51.344;12.362;2022-09-29T15:39:50;99146.47;;;14.32
71897;BMP280;59767;51.344;12.362;2022-09-29T15:42:55;99155.28;;;14.29
71897;BMP280;59767;51.344;12.362;2022-09-29T15:46:02;99155.56;;;14.21
71897;BMP280;59767;51.344;12.362;2022-09-29T15:49:18;99167.72;;;14.19
71897;BMP280;59767;51.344;12.362;2022-09-29T15:52:22;99164.63;;;14.11
71897;BMP280;59767;51.344;12.362;2022-09-29T15:55:29;99182.47;;;14.04
71897;BMP280;59767;51.344;12.362;2022-09-29T15:58:36;99182.13;;;14.01
71897;BMP280;59767;51.344;12.362;2022-09-29T16:01:45;99178.03;;;13.93
71897;BMP280;59767;51.344;12.362;2022-09-29T16:04:53;99190.59;;;13.88
71897;BMP280;59767;51.344;12.362;2022-09-29T16:08:03;99191.03;;;13.85
71897;BMP280;59767;51.344;12.362;2022-09-29T16:11:17;99201.25;;;13.79
71897;BMP280;59767;51.344;12.362;2022-09-29T16:14:25;99209.69;;;13.73
71897;BMP280;59767;51.344;12.362;2022-09-29T16:17:30;99211.84;;;13.69
71897;BMP280;59767;51.344;12.362;2022-09-29T16:20:35;99218.13;;;13.67
71897;BMP280;59767;51.344;12.362;2022-09-29T16:23:47;99222.84;;;13.57
71897;BMP280;59767;51.344;12.362;2022-09-29T16:26:54;99216.97;;;13.50
71897;BMP280;59767;51.344;12.362;2022-09-29T16:30:18;99220.91;;;13.46
71897;BMP280;59767;51.344;12.362;2022-09-29T16:33:23;99218.97;;;13.41
71897;BMP280;59767;51.344;12.362;2022-09-29T16:36:34;99218.00;;;13.36
71897;BMP280;59767;51.344;12.362;2022-09-29T16:39:42;99218.38;;;13.33
71897;BMP280;59767;51.344;12.362;2022-09-29T16:42:51;99216.84;;;13.32
71897;BMP280;59767;51.344;12.362;2022-09-29T16:45:58;99213.72;;;13.30
71897;BMP280;59767;51.344;12.362;2022-09-29T16:49:03;99213.50;;;13.31
71897;BMP280;59767;51.344;12.362;2022-09-29T16:52:23;99206.06;;;13.23
71897;BMP280;59767;51.344;12.362;2022-09-29T16:55:28;99210.38;;;13.23
71897;BMP280;59767;51.344;12.362;2022-09-29T16:58:33;99217.44;;;13.21
71897;BMP280;59767;51.344;12.362;2022-09-29T17:01:42;99229.75;;;13.24
71897;BMP280;59767;51.344;12.362;2022-09-29T17:04:47;99241.50;;;13.18
71897;BMP280;59767;51.344;12.362;2022-09-29T17:08:03;99256.22;;;13.16
71897;BMP280;59767;51.344;12.362;2022-09-29T17:11:07;99253.44;;;13.11
71897;BMP280;59767;51.344;12.362;2022-09-29T17:14:11;99257.94;;;13.03
71897;BMP280;59767;51.344;12.362;2022-09-29T17:17:22;99261.06;;;13.05
71897;BMP280;59767;51.344;12.362;2022-09-29T17:20:27;99258.13;;;13.01
71897;BMP280;59767;51.344;12.362;2022-09-29T17:23:34;99273.38;;;12.95
71897;BMP280;59767;51.344;12.362;2022-09-29T17:26:45;99273.38;;;12.95
71897;BMP280;59767;51.344;12.362;2022-09-29T17:30:09;99268.09;;;12.90
71897;BMP280;59767;51.344;12.362;2022-09-29T17:33:15;99272.78;;;12.86
71897;BMP280;59767;51.344;12.362;2022-09-29T17:36:20;99285.47;;;12.86
71897;BMP280;59767;51.344;12.362;2022-09-29T17:39:27;99293.91;;;12.80
71897;BMP280;59767;51.344;12.362;2022-09-29T17:42:31;99291.75;;;12.77
71897;BMP280;59767;51.344;12.362;2022-09-29T17:45:35;99292.56;;;12.78
71897;BMP280;59767;51.344;12.362;2022-09-29T17:48:44;99291.34;;;12.74
71897;BMP280;59767;51.344;12.362;2022-09-29T17:51:49;99301.50;;;12.74
71897;BMP280;59767;51.344;12.362;2022-09-29T17:54:53;99304.06;;;12.74
71897;BMP280;59767;51.344;12.362;2022-09-29T17:57:57;99290.56;;;12.73
71897;BMP280;59767;51.344;12.362;2022-09-29T18:01:01;99297.81;;;12.70
71897;BMP280;59767;51.344;12.362;2022-09-29T18:04:05;99303.47;;;12.72
71897;BMP280;59767;51.344;12.362;2022-09-29T18:07:11;99297.59;;;12.65
71897;BMP280;59767;51.344;12.362;2022-09-29T18:10:35;99307.53;;;12.60
71897;BMP280;59767;51.344;12.362;2022-09-29T18:13:40;99297.34;;;12.53
71897;BMP280;59767;51.344;12.362;2022-09-29T18:16:44;99303.41;;;12.52
71897;BMP280;59767;51.344;12.362;2022-09-29T18:19:48;99301.84;;;12.45
71897;BMP280;59767;51.344;12.362;2022-09-29T18:22:56;99295.19;;;12.44
71897;BMP280;59767;51.344;12.362;2022-09-29T18:26:05;99307.63;;;12.39
71897;BMP280;59767;51.344;12.362;2022-09-29T18:29:14;99299.19;;;12.25
71897;BMP280;59767;51.344;12.362;2022-09-29T18:32:19;99302.31;;;12.21
71897;BMP280;59767;51.344;12.362;2022-09-29T18:35:29;99308.50;;;12.12
71897;BMP280;59767;51.344;12.362;2022-09-29T18:38:33;99313.16;;;12.02
71897;BMP280;59767;51.344;12.362;2022-09-29T18:41:37;99308.81;;;11.89
71897;BMP280;59767;51.344;12.362;2022-09-29T18:44:42;99317.72;;;11.85
71897;BMP280;59767;51.344;12.362;2022-09-29T18:47:47;99315.91;;;11.73
71897;BMP280;59767;51.344;12.362;2022-09-29T18:50:52;99323.28;;;11.68
71897;BMP280;59767;51.344;12.362;2022-09-29T18:53:59;99322.31;;;11.69
71897;BMP280;59767;51.344;12.362;2022-09-29T18:57:03;99321.13;;;11.65
71897;BMP280;59767;51.344;12.362;2022-09-29T19:00:15;99327.16;;;11.64
71897;BMP280;59767;51.344;12.362;2022-09-29T19:03:20;99327.56;;;11.61
71897;BMP280;59767;51.344;12.362;2022-09-29T19:06:26;99327.47;;;11.54
71897;BMP280;59767;51.344;12.362;2022-09-29T19:09:31;99328.38;;;11.47
71897;BMP280;59767;51.344;12.362;2022-09-29T19:12:36;99335.97;;;11.47
71897;BMP280;59767;51.344;12.362;2022-09-29T19:15:40;99338.47;;;11.40
71897;BMP280;59767;51.344;12.362;2022-09-29T19:18:46;99342.97;;;11.38
71897;BMP280;59767;51.344;12.362;2022-09-29T19:21:52;99348.75;;;11.32
71897;BMP280;59767;51.344;12.362;2022-09-29T19:24:56;99347.53;;;11.28
71897;BMP280;59767;51.344;12.362;2022-09-29T19:28:02;99357.06;;;11.26
71897;BMP280;59767;51.344;12.362;2022-09-29T19:31:13;99367.94;;;11.20
71897;BMP280;59767;51.344;12.362;2022-09-29T19:34:18;99375.91;;;11.17
71897;BMP280;59767;51.344;12.362;2022-09-29T19:37:22;99372.53;;;11.10
71897;BMP280;59767;51.344;12.362;2022-09-29T19:40:29;99371.06;;;11.01
71897;BMP280;59767;51.344;12.362;2022-09-29T19:43:34;99380.06;;;11.04